sensor_id;sensor_type;location;lat;lon;timestamp;P1;durP1;ratioP1;P2;durP2;ratioP2
15142;SDS011;7672;50.834;6.286;2023-04-25T00:00:14;13.80;;;4.23;;
15142;SDS011;7672;50.834;6.286;2023-04-25T00:02:41;9.10;;;3.90;;
15142;SDS011;7672;50.834;6.286;2023-04-25T00:05:09;7.93;;;4.20;;
15142;SDS011;7672;50.834;6.286;2023-04-25T00:07:36;11.27;;;4.40;;
15142;SDS011;7672;50.834;6.286;2023-04-25T00:10:03;12.17;;;4.87;;
15142;SDS011;7672;50.834;6.286;2023-04-25T00:12:31;11.10;;;5.00;;
15142;SDS011;7672;50.834;6.286;2023-04-25T00:14:59;7.30;;;4.30;;
15142;SDS011;7672;50.834;6.286;2023-04-25T00:17:26;9.60;;;5.10;;
15142;SDS011;7672;50.834;6.286;2023-04-25T00:19:53;13.97;;;4.47;;
15142;SDS011;7672;50.834;6.286;2023-04-25T00:22:20;9.13;;;4.47;;
15142;SDS011;7672;50.834;6.286;2023-04-25T00:24:47;12.27;;;5.17;;
15142;SDS011;7672;50.834;6.286;2023-04-25T00:27:14;11.20;;;4.17;;
15142;SDS011;7672;50.834;6.286;2023-04-25T00:29:41;14.00;;;4.73;;
15142;SDS011;7672;50.834;6.286;2023-04-25T00:32:08;8.13;;;4.30;;
15142;SDS011;7672;50.834;6.286;2023-04-25T00:34:34;11.60;;;4.90;;
15142;SDS011;7672;50.834;6.286;2023-04-25T00:37:02;14.77;;;5.17;;
15142;SDS011;7672;50.834;6.286;2023-04-25T00:39:28;10.33;;;4.70;;
15142;SDS011;7672;50.834;6.286;2023-04-25T00:41:55;12.40;;;4.60;;
15142;SDS011;7672;50.834;6.286;2023-04-25T00:44:24;7.90;;;4.50;;
15142;SDS011;7672;50.834;6.286;2023-04-25T00:46:54;9.07;;;4.47;;
15142;SDS011;7672;50.834;6.286;2023-04-25T00:49:21;11.03;;;4.83;;
15142;SDS011;7672;50.834;6.286;2023-04-25T00:51:48;11.80;;;5.00;;
15142;SDS011;7672;50.834;6.286;2023-04-25T00:54:16;8.77;;;4.47;;
15142;SDS011;7672;50.834;6.286;2023-04-25T00:56:44;6.87;;;4.10;;
15142;SDS011;7672;50.834;6.286;2023-04-25T00:59:11;9.70;;;4.60;;
15142;SDS011;7672;50.834;6.286;2023-04-25T01:01:39;10.27;;;4.00;;
15142;SDS011;7672;50.834;6.286;2023-04-25T01:04:07;7.70;;;4.33;;
15142;SDS011;7672;50.834;6.286;2023-04-25T01:06:35;10.70;;;4.60;;
15142;SDS011;7672;50.834;6.286;2023-04-25T01:09:02;10.07;;;3.90;;
15142;SDS011;7672;50.834;6.286;2023-04-25T01:11:31;8.17;;;3.60;;
15142;SDS011;7672;50.834;6.286;2023-04-25T01:13:58;14.57;;;5.50;;
15142;SDS011;7672;50.834;6.286;2023-04-25T01:16:25;10.40;;;5.20;;
15142;SDS011;7672;50.834;6.286;2023-04-25T01:18:52;11.37;;;4.60;;
15142;SDS011;7672;50.834;6.286;2023-04-25T01:21:21;9.00;;;3.97;;
15142;SDS011;7672;50.834;6.286;2023-04-25T01:23:47;6.87;;;4.13;;
15142;SDS011;7672;50.834;6.286;2023-04-25T01:26:15;8.63;;;4.10;;
15142;SDS011;7672;50.834;6.286;2023-04-25T01:28:42;9.77;;;4.13;;
15142;SDS011;7672;50.834;6.286;2023-04-25T01:31:09;10.20;;;4.43;;
15142;SDS011;7672;50.834;6.286;2023-04-25T01:33:38;10.90;;;4.83;;
15142;SDS011;7672;50.834;6.286;2023-04-25T01:36:05;14.30;;;4.30;;
15142;SDS011;7672;50.834;6.286;2023-04-25T01:38:32;12.17;;;4.87;;
15142;SDS011;7672;50.834;6.286;2023-04-25T01:40:59;10.70;;;4.43;;
15142;SDS011;7672;50.834;6.286;2023-04-25T01:43:26;9.80;;;4.30;;
15142;SDS011;7672;50.834;6.286;2023-04-25T01:45:54;11.20;;;4.53;;
15142;SDS011;7672;50.834;6.286;2023-04-25T01:48:21;9.93;;;4.20;;
15142;SDS011;7672;50.834;6.286;2023-04-25T01:50:48;11.87;;;4.40;;
15142;SDS011;7672;50.834;6.286;2023-04-25T01:53:14;11.73;;;4.70;;
15142;SDS011;7672;50.834;6.286;2023-04-25T01:55:41;10.10;;;4.57;;
15142;SDS011;7672;50.834;6.286;2023-04-25T01:58:08;13.57;;;4.93;;
15142;SDS011;7672;50.834;6.286;2023-04-25T02:00:36;12.80;;;6.53;;
15142;SDS011;7672;50.834;6.286;2023-04-25T02:03:05;7.97;;;4.37;;
15142;SDS011;7672;50.834;6.286;2023-04-25T02:05:36;10.53;;;4.20;;
15142;SDS011;7672;50.834;6.286;2023-04-25T02:08:05;5.50;;;4.00;;
15142;SDS011;7672;50.834;6.286;2023-04-25T02:10:34;5.83;;;3.83;;
15142;SDS011;7672;50.834;6.286;2023-04-25T02:13:02;7.13;;;4.03;;
15142;SDS011;7672;50.834;6.286;2023-04-25T02:15:30;10.97;;;3.87;;
15142;SDS011;7672;50.834;6.286;2023-04-25T02:17:57;9.63;;;4.23;;
15142;SDS011;7672;50.834;6.286;2023-04-25T02:20:26;10.50;;;4.37;;
15142;SDS011;7672;50.834;6.286;2023-04-25T02:22:56;10.20;;;4.03;;
15142;SDS011;7672;50.834;6.286;2023-04-25T02:25:22;8.63;;;3.77;;
15142;SDS011;7672;50.834;6.286;2023-04-25T02:27:49;12.57;;;4.30;;
15142;SDS011;7672;50.834;6.286;2023-04-25T02:30:17;9.67;;;4.27;;
15142;SDS011;7672;50.834;6.286;2023-04-25T02:32:44;10.07;;;4.00;;
15142;SDS011;7672;50.834;6.286;2023-04-25T02:35:11;12.33;;;4.17;;
15142;SDS011;7672;50.834;6.286;2023-04-25T02:37:38;13.73;;;5.40;;
15142;SDS011;7672;50.834;6.286;2023-04-25T02:40:06;13.17;;;3.80;;
15142;SDS011;7672;50.834;6.286;2023-04-25T02:42:34;11.80;;;4.40;;
15142;SDS011;7672;50.834;6.286;2023-04-25T02:45:01;15.60;;;4.30;;
15142;SDS011;7672;50.834;6.286;2023-04-25T02:47:29;11.60;;;3.93;;
15142;SDS011;7672;50.834;6.286;2023-04-25T02:49:56;11.40;;;4.23;;
15142;SDS011;7672;50.834;6.286;2023-04-25T02:52:23;6.50;;;3.50;;
15142;SDS011;7672;50.834;6.286;2023-04-25T02:54:51;13.07;;;3.93;;
15142;SDS011;7672;50.834;6.286;2023-04-25T02:57:18;10.43;;;3.97;;
15142;SDS011;7672;50.834;6.286;2023-04-25T02:59:45;10.13;;;3.70;;
15142;SDS011;7672;50.834;6.286;2023-04-25T03:02:12;8.37;;;3.60;;
15142;SDS011;7672;50.834;6.286;2023-04-25T03:04:38;21.47;;;5.10;;
15142;SDS011;7672;50.834;6.286;2023-04-25T03:07:06;12.10;;;3.87;;
15142;SDS011;7672;50.834;6.286;2023-04-25T03:09:33;9.60;;;3.93;;
15142;SDS011;7672;50.834;6.286;2023-04-25T03:12:00;9.40;;;3.83;;
15142;SDS011;7672;50.834;6.286;2023-04-25T03:14:27;21.47;;;4.93;;
15142;SDS011;7672;50.834;6.286;2023-04-25T03:16:54;15.60;;;4.00;;
15142;SDS011;7672;50.834;6.286;2023-04-25T03:19:21;9.13;;;4.20;;
15142;SDS011;7672;50.834;6.286;2023-04-25T03:21:48;9.87;;;4.07;;
15142;SDS011;7672;50.834;6.286;2023-04-25T03:24:15;12.50;;;4.70;;
15142;SDS011;7672;50.834;6.286;2023-04-25T03:26:42;14.17;;;4.93;;
15142;SDS011;7672;50.834;6.286;2023-04-25T03:29:08;14.80;;;4.30;;
15142;SDS011;7672;50.834;6.286;2023-04-25T03:31:35;11.73;;;4.53;;
15142;SDS011;7672;50.834;6.286;2023-04-25T03:34:02;11.83;;;4.13;;
15142;SDS011;7672;50.834;6.286;2023-04-25T03:36:29;8.10;;;4.10;;
15142;SDS011;7672;50.834;6.286;2023-04-25T03:38:56;13.00;;;3.60;;
15142;SDS011;7672;50.834;6.286;2023-04-25T03:41:23;8.70;;;3.77;;
15142;SDS011;7672;50.834;6.286;2023-04-25T03:43:51;9.67;;;3.83;;
15142;SDS011;7672;50.834;6.286;2023-04-25T03:46:18;10.37;;;4.30;;
15142;SDS011;7672;50.834;6.286;2023-04-25T03:48:45;13.33;;;4.13;;
15142;SDS011;7672;50.834;6.286;2023-04-25T03:51:11;9.83;;;3.93;;
15142;SDS011;7672;50.834;6.286;2023-04-25T03:53:38;9.13;;;3.97;;
15142;SDS011;7672;50.834;6.286;2023-04-25T03:56:05;12.17;;;4.30;;
15142;SDS011;7672;50.834;6.286;2023-04-25T03:58:32;8.47;;;4.30;;
15142;SDS011;7672;50.834;6.286;2023-04-25T04:01:00;11.27;;;3.97;;
15142;SDS011;7672;50.834;6.286;2023-04-25T04:03:29;11.17;;;3.90;;
15142;SDS011;7672;50.834;6.286;2023-04-25T04:05:56;16.33;;;4.63;;
15142;SDS011;7672;50.834;6.286;2023-04-25T04:08:25;13.03;;;4.10;;
15142;SDS011;7672;50.834;6.286;2023-04-25T04:10:51;11.73;;;3.93;;
15142;SDS011;7672;50.834;6.286;2023-04-25T04:13:21;11.90;;;4.20;;
15142;SDS011;7672;50.834;6.286;2023-04-25T04:15:47;9.63;;;4.47;;
15142;SDS011;7672;50.834;6.286;2023-04-25T04:18:14;8.77;;;4.43;;
15142;SDS011;7672;50.834;6.286;2023-04-25T04:20:42;9.87;;;4.00;;
15142;SDS011;7672;50.834;6.286;2023-04-25T04:23:08;17.03;;;3.97;;
15142;SDS011;7672;50.834;6.286;2023-04-25T04:25:36;9.53;;;4.60;;
15142;SDS011;7672;50.834;6.286;2023-04-25T04:28:03;15.27;;;4.20;;
15142;SDS011;7672;50.834;6.286;2023-04-25T04:30:31;12.83;;;4.33;;
15142;SDS011;7672;50.834;6.286;2023-04-25T04:32:59;12.37;;;5.07;;
15142;SDS011;7672;50.834;6.286;2023-04-25T04:35:27;9.30;;;4.10;;
15142;SDS011;7672;50.834;6.286;2023-04-25T04:37:54;11.17;;;3.70;;
15142;SDS011;7672;50.834;6.286;2023-04-25T04:40:21;11.43;;;4.93;;
15142;SDS011;7672;50.834;6.286;2023-04-25T04:42:48;17.70;;;4.73;;
15142;SDS011;7672;50.834;6.286;2023-04-25T04:45:15;13.70;;;4.70;;
15142;SDS011;7672;50.834;6.286;2023-04-25T04:47:42;11.17;;;3.93;;
15142;SDS011;7672;50.834;6.286;2023-04-25T04:50:11;16.97;;;4.53;;
15142;SDS011;7672;50.834;6.286;2023-04-25T04:52:38;9.87;;;3.67;;
15142;SDS011;7672;50.834;6.286;2023-04-25T04:55:05;9.67;;;4.77;;
15142;SDS011;7672;50.834;6.286;2023-04-25T04:57:34;11.87;;;3.93;;
15142;SDS011;7672;50.834;6.286;2023-04-25T05:00:02;14.13;;;4.23;;
15142;SDS011;7672;50.834;6.286;2023-04-25T05:02:31;8.87;;;3.60;;
15142;SDS011;7672;50.834;6.286;2023-04-25T05:04:58;13.07;;;4.60;;
15142;SDS011;7672;50.834;6.286;2023-04-25T05:07:24;15.07;;;4.07;;
15142;SDS011;7672;50.834;6.286;2023-04-25T05:09:51;10.90;;;4.13;;
15142;SDS011;7672;50.834;6.286;2023-04-25T05:12:18;15.30;;;4.80;;
15142;SDS011;7672;50.834;6.286;2023-04-25T05:14:45;11.17;;;3.97;;
15142;SDS011;7672;50.834;6.286;2023-04-25T05:17:11;12.17;;;3.87;;
15142;SDS011;7672;50.834;6.286;2023-04-25T05:19:38;9.80;;;4.40;;
15142;SDS011;7672;50.834;6.286;2023-04-25T05:22:05;16.30;;;4.63;;
15142;SDS011;7672;50.834;6.286;2023-04-25T05:24:32;10.27;;;3.77;;
15142;SDS011;7672;50.834;6.286;2023-04-25T05:26:59;10.43;;;4.13;;
15142;SDS011;7672;50.834;6.286;2023-04-25T05:29:26;14.30;;;4.33;;
15142;SDS011;7672;50.834;6.286;2023-04-25T05:31:52;11.77;;;4.40;;
15142;SDS011;7672;50.834;6.286;2023-04-25T05:34:19;9.70;;;4.03;;
15142;SDS011;7672;50.834;6.286;2023-04-25T05:36:46;11.20;;;3.73;;
15142;SDS011;7672;50.834;6.286;2023-04-25T05:39:17;11.83;;;4.17;;
15142;SDS011;7672;50.834;6.286;2023-04-25T05:41:44;16.23;;;4.70;;
15142;SDS011;7672;50.834;6.286;2023-04-25T05:44:11;11.77;;;4.57;;
15142;SDS011;7672;50.834;6.286;2023-04-25T05:46:37;15.93;;;3.90;;
15142;SDS011;7672;50.834;6.286;2023-04-25T05:49:04;16.37;;;4.90;;
15142;SDS011;7672;50.834;6.286;2023-04-25T05:51:31;11.73;;;4.90;;
15142;SDS011;7672;50.834;6.286;2023-04-25T05:53:58;12.97;;;4.73;;
15142;SDS011;7672;50.834;6.286;2023-04-25T05:56:24;11.47;;;4.43;;
15142;SDS011;7672;50.834;6.286;2023-04-25T05:58:51;18.60;;;5.23;;
15142;SDS011;7672;50.834;6.286;2023-04-25T06:01:19;9.60;;;4.00;;
15142;SDS011;7672;50.834;6.286;2023-04-25T06:03:45;18.27;;;4.47;;
15142;SDS011;7672;50.834;6.286;2023-04-25T06:06:13;12.90;;;4.40;;
15142;SDS011;7672;50.834;6.286;2023-04-25T06:08:40;17.00;;;4.30;;
15142;SDS011;7672;50.834;6.286;2023-04-25T06:11:07;12.20;;;4.83;;
15142;SDS011;7672;50.834;6.286;2023-04-25T06:13:34;15.97;;;4.27;;
15142;SDS011;7672;50.834;6.286;2023-04-25T06:16:01;9.80;;;3.87;;
15142;SDS011;7672;50.834;6.286;2023-04-25T06:18:28;11.80;;;4.43;;
15142;SDS011;7672;50.834;6.286;2023-04-25T06:20:54;10.13;;;4.10;;
15142;SDS011;7672;50.834;6.286;2023-04-25T06:23:21;12.87;;;5.33;;
15142;SDS011;7672;50.834;6.286;2023-04-25T06:25:48;9.90;;;5.80;;
15142;SDS011;7672;50.834;6.286;2023-04-25T06:28:15;18.37;;;4.57;;
15142;SDS011;7672;50.834;6.286;2023-04-25T06:30:42;11.20;;;4.57;;
15142;SDS011;7672;50.834;6.286;2023-04-25T06:33:09;13.13;;;4.47;;
15142;SDS011;7672;50.834;6.286;2023-04-25T06:35:35;10.20;;;4.47;;
15142;SDS011;7672;50.834;6.286;2023-04-25T06:38:02;15.03;;;4.10;;
15142;SDS011;7672;50.834;6.286;2023-04-25T06:40:29;10.20;;;3.90;;
15142;SDS011;7672;50.834;6.286;2023-04-25T06:42:56;10.70;;;3.87;;
15142;SDS011;7672;50.834;6.286;2023-04-25T06:45:23;11.27;;;3.70;;
15142;SDS011;7672;50.834;6.286;2023-04-25T06:47:49;13.17;;;3.43;;
15142;SDS011;7672;50.834;6.286;2023-04-25T06:50:16;13.43;;;3.97;;
15142;SDS011;7672;50.834;6.286;2023-04-25T06:52:43;11.60;;;3.87;;
15142;SDS011;7672;50.834;6.286;2023-04-25T06:55:10;11.60;;;4.27;;
15142;SDS011;7672;50.834;6.286;2023-04-25T06:57:37;9.07;;;4.13;;
15142;SDS011;7672;50.834;6.286;2023-04-25T07:00:04;16.27;;;4.90;;
15142;SDS011;7672;50.834;6.286;2023-04-25T07:02:34;11.33;;;4.57;;
15142;SDS011;7672;50.834;6.286;2023-04-25T07:05:02;15.97;;;3.83;;
15142;SDS011;7672;50.834;6.286;2023-04-25T07:07:30;11.03;;;3.73;;
15142;SDS011;7672;50.834;6.286;2023-04-25T07:09:57;15.30;;;4.03;;
15142;SDS011;7672;50.834;6.286;2023-04-25T07:12:23;14.00;;;4.10;;
15142;SDS011;7672;50.834;6.286;2023-04-25T07:14:50;10.73;;;3.07;;
15142;SDS011;7672;50.834;6.286;2023-04-25T07:17:17;12.43;;;4.03;;
15142;SDS011;7672;50.834;6.286;2023-04-25T07:19:44;10.57;;;3.50;;
15142;SDS011;7672;50.834;6.286;2023-04-25T07:22:11;9.93;;;3.43;;
15142;SDS011;7672;50.834;6.286;2023-04-25T07:24:38;13.10;;;3.40;;
15142;SDS011;7672;50.834;6.286;2023-04-25T07:27:05;9.73;;;3.73;;
15142;SDS011;7672;50.834;6.286;2023-04-25T07:29:32;18.10;;;4.20;;
15142;SDS011;7672;50.834;6.286;2023-04-25T07:32:01;9.70;;;3.83;;
15142;SDS011;7672;50.834;6.286;2023-04-25T07:34:28;12.03;;;3.70;;
15142;SDS011;7672;50.834;6.286;2023-04-25T07:36:56;13.67;;;4.30;;
15142;SDS011;7672;50.834;6.286;2023-04-25T07:39:23;12.50;;;3.57;;
15142;SDS011;7672;50.834;6.286;2023-04-25T07:41:50;16.47;;;3.90;;
15142;SDS011;7672;50.834;6.286;2023-04-25T07:44:20;9.97;;;3.40;;
15142;SDS011;7672;50.834;6.286;2023-04-25T07:46:47;10.67;;;4.00;;
15142;SDS011;7672;50.834;6.286;2023-04-25T07:49:13;13.10;;;3.87;;
15142;SDS011;7672;50.834;6.286;2023-04-25T07:51:40;16.70;;;3.77;;
15142;SDS011;7672;50.834;6.286;2023-04-25T07:54:09;13.93;;;4.10;;
15142;SDS011;7672;50.834;6.286;2023-04-25T07:56:40;12.23;;;3.60;;
15142;SDS011;7672;50.834;6.286;2023-04-25T07:59:18;16.10;;;4.10;;
15142;SDS011;7672;50.834;6.286;2023-04-25T08:01:46;13.53;;;3.97;;
15142;SDS011;7672;50.834;6.286;2023-04-25T08:04:12;14.47;;;3.93;;
15142;SDS011;7672;50.834;6.286;2023-04-25T08:06:40;14.23;;;4.23;;
15142;SDS011;7672;50.834;6.286;2023-04-25T08:09:07;9.20;;;3.13;;
15142;SDS011;7672;50.834;6.286;2023-04-25T08:11:35;7.90;;;3.03;;
15142;SDS011;7672;50.834;6.286;2023-04-25T08:14:03;11.97;;;3.60;;
15142;SDS011;7672;50.834;6.286;2023-04-25T08:16:29;7.43;;;2.97;;
15142;SDS011;7672;50.834;6.286;2023-04-25T08:18:57;11.97;;;3.03;;
15142;SDS011;7672;50.834;6.286;2023-04-25T08:21:24;7.47;;;3.10;;
15142;SDS011;7672;50.834;6.286;2023-04-25T08:23:53;12.73;;;3.23;;
15142;SDS011;7672;50.834;6.286;2023-04-25T08:26:19;13.33;;;3.13;;
15142;SDS011;7672;50.834;6.286;2023-04-25T08:28:46;6.47;;;2.60;;
15142;SDS011;7672;50.834;6.286;2023-04-25T08:31:13;8.03;;;3.20;;
15142;SDS011;7672;50.834;6.286;2023-04-25T08:33:41;7.43;;;2.60;;
15142;SDS011;7672;50.834;6.286;2023-04-25T08:36:08;9.00;;;2.87;;
15142;SDS011;7672;50.834;6.286;2023-04-25T08:38:35;9.00;;;2.93;;
15142;SDS011;7672;50.834;6.286;2023-04-25T08:41:02;11.97;;;2.97;;
15142;SDS011;7672;50.834;6.286;2023-04-25T08:43:32;8.27;;;2.83;;
15142;SDS011;7672;50.834;6.286;2023-04-25T08:46:01;9.67;;;3.40;;
15142;SDS011;7672;50.834;6.286;2023-04-25T08:48:28;7.63;;;2.80;;
15142;SDS011;7672;50.834;6.286;2023-04-25T08:51:01;10.77;;;2.93;;
15142;SDS011;7672;50.834;6.286;2023-04-25T08:53:33;10.17;;;3.07;;
15142;SDS011;7672;50.834;6.286;2023-04-25T08:56:01;10.03;;;3.13;;
15142;SDS011;7672;50.834;6.286;2023-04-25T08:58:29;11.97;;;2.87;;
15142;SDS011;7672;50.834;6.286;2023-04-25T09:00:56;16.03;;;3.10;;
15142;SDS011;7672;50.834;6.286;2023-04-25T09:03:23;7.10;;;2.43;;
15142;SDS011;7672;50.834;6.286;2023-04-25T09:05:51;7.40;;;2.77;;
15142;SDS011;7672;50.834;6.286;2023-04-25T09:08:18;12.87;;;3.17;;
15142;SDS011;7672;50.834;6.286;2023-04-25T09:10:45;8.70;;;2.97;;
15142;SDS011;7672;50.834;6.286;2023-04-25T09:13:13;10.10;;;2.30;;
15142;SDS011;7672;50.834;6.286;2023-04-25T09:15:50;8.40;;;2.50;;
15142;SDS011;7672;50.834;6.286;2023-04-25T09:21:12;6.43;;;2.43;;
15142;SDS011;7672;50.834;6.286;2023-04-25T09:23:41;6.97;;;2.50;;
15142;SDS011;7672;50.834;6.286;2023-04-25T09:26:15;6.83;;;2.20;;
15142;SDS011;7672;50.834;6.286;2023-04-25T09:28:45;4.50;;;2.20;;
15142;SDS011;7672;50.834;6.286;2023-04-25T09:31:23;8.17;;;2.90;;
15142;SDS011;7672;50.834;6.286;2023-04-25T09:33:50;12.03;;;2.90;;
15142;SDS011;7672;50.834;6.286;2023-04-25T09:36:27;11.03;;;3.00;;
15142;SDS011;7672;50.834;6.286;2023-04-25T09:38:56;8.70;;;3.33;;
15142;SDS011;7672;50.834;6.286;2023-04-25T09:41:25;10.83;;;2.90;;
15142;SDS011;7672;50.834;6.286;2023-04-25T09:43:52;4.83;;;2.50;;
15142;SDS011;7672;50.834;6.286;2023-04-25T09:46:25;7.17;;;2.60;;
15142;SDS011;7672;50.834;6.286;2023-04-25T09:48:59;11.67;;;2.80;;
15142;SDS011;7672;50.834;6.286;2023-04-25T09:51:33;7.90;;;2.97;;
15142;SDS011;7672;50.834;6.286;2023-04-25T09:54:00;9.20;;;3.33;;
15142;SDS011;7672;50.834;6.286;2023-04-25T09:56:27;9.27;;;3.50;;
15142;SDS011;7672;50.834;6.286;2023-04-25T09:59:03;9.50;;;3.10;;
15142;SDS011;7672;50.834;6.286;2023-04-25T10:01:31;7.70;;;3.67;;
15142;SDS011;7672;50.834;6.286;2023-04-25T10:03:59;7.10;;;2.97;;
15142;SDS011;7672;50.834;6.286;2023-04-25T10:06:29;7.27;;;3.07;;
15142;SDS011;7672;50.834;6.286;2023-04-25T10:09:00;10.90;;;3.33;;
15142;SDS011;7672;50.834;6.286;2023-04-25T10:11:30;11.13;;;3.10;;
15142;SDS011;7672;50.834;6.286;2023-04-25T10:13:58;8.00;;;3.40;;
15142;SDS011;7672;50.834;6.286;2023-04-25T10:16:26;4.93;;;2.73;;
15142;SDS011;7672;50.834;6.286;2023-04-25T10:18:55;9.27;;;3.20;;
15142;SDS011;7672;50.834;6.286;2023-04-25T10:21:22;7.13;;;2.80;;
15142;SDS011;7672;50.834;6.286;2023-04-25T10:23:53;8.90;;;2.80;;
15142;SDS011;7672;50.834;6.286;2023-04-25T10:26:21;9.27;;;2.57;;
15142;SDS011;7672;50.834;6.286;2023-04-25T10:28:59;8.10;;;2.50;;
15142;SDS011;7672;50.834;6.286;2023-04-25T10:31:29;7.87;;;2.50;;
15142;SDS011;7672;50.834;6.286;2023-04-25T10:33:57;9.17;;;2.63;;
15142;SDS011;7672;50.834;6.286;2023-04-25T10:36:27;6.23;;;2.70;;
15142;SDS011;7672;50.834;6.286;2023-04-25T10:39:02;6.67;;;2.63;;
15142;SDS011;7672;50.834;6.286;2023-04-25T10:41:45;6.10;;;2.72;;
15142;SDS011;7672;50.834;6.286;2023-04-25T10:44:14;6.20;;;2.70;;
15142;SDS011;7672;50.834;6.286;2023-04-25T10:46:41;5.20;;;2.30;;
15142;SDS011;7672;50.834;6.286;2023-04-25T10:49:28;10.00;;;3.20;;
15142;SDS011;7672;50.834;6.286;2023-04-25T10:52:12;8.80;;;3.55;;
15142;SDS011;7672;50.834;6.286;2023-04-25T10:54:53;10.73;;;2.95;;
15142;SDS011;7672;50.834;6.286;2023-04-25T10:57:32;10.55;;;3.67;;
15142;SDS011;7672;50.834;6.286;2023-04-25T11:07:52;6.20;;;3.45;;
15142;SDS011;7672;50.834;6.286;2023-04-25T11:10:33;6.53;;;2.80;;
15142;SDS011;7672;50.834;6.286;2023-04-25T11:13:03;7.90;;;2.83;;
15142;SDS011;7672;50.834;6.286;2023-04-25T11:15:31;9.10;;;3.10;;
15142;SDS011;7672;50.834;6.286;2023-04-25T11:17:57;9.48;;;3.13;;
15142;SDS011;7672;50.834;6.286;2023-04-25T11:20:25;6.10;;;2.65;;
15142;SDS011;7672;50.834;6.286;2023-04-25T11:22:54;6.78;;;2.90;;
15142;SDS011;7672;50.834;6.286;2023-04-25T11:25:26;7.45;;;2.85;;
15142;SDS011;7672;50.834;6.286;2023-04-25T11:27:55;6.60;;;2.75;;
15142;SDS011;7672;50.834;6.286;2023-04-25T11:30:24;4.38;;;2.40;;
15142;SDS011;7672;50.834;6.286;2023-04-25T11:32:53;5.80;;;2.55;;
15142;SDS011;7672;50.834;6.286;2023-04-25T11:35:20;5.82;;;2.28;;
15142;SDS011;7672;50.834;6.286;2023-04-25T11:37:49;8.53;;;2.63;;
15142;SDS011;7672;50.834;6.286;2023-04-25T11:40:16;5.90;;;2.30;;
15142;SDS011;7672;50.834;6.286;2023-04-25T11:42:44;8.43;;;2.67;;
15142;SDS011;7672;50.834;6.286;2023-04-25T11:45:13;7.00;;;2.63;;
15142;SDS011;7672;50.834;6.286;2023-04-25T11:47:40;8.23;;;2.23;;
15142;SDS011;7672;50.834;6.286;2023-04-25T11:50:07;4.37;;;2.47;;
15142;SDS011;7672;50.834;6.286;2023-04-25T11:52:39;6.77;;;2.47;;
15142;SDS011;7672;50.834;6.286;2023-04-25T11:55:15;8.67;;;2.43;;
15142;SDS011;7672;50.834;6.286;2023-04-25T11:57:45;5.27;;;2.60;;
15142;SDS011;7672;50.834;6.286;2023-04-25T12:00:18;7.40;;;2.57;;
15142;SDS011;7672;50.834;6.286;2023-04-25T12:02:54;9.77;;;2.70;;
15142;SDS011;7672;50.834;6.286;2023-04-25T12:05:27;9.40;;;3.23;;
15142;SDS011;7672;50.834;6.286;2023-04-25T12:08:10;4.73;;;2.43;;
15142;SDS011;7672;50.834;6.286;2023-04-25T12:10:39;8.40;;;2.73;;
15142;SDS011;7672;50.834;6.286;2023-04-25T12:13:24;8.03;;;3.17;;
15142;SDS011;7672;50.834;6.286;2023-04-25T12:15:54;5.70;;;2.77;;
15142;SDS011;7672;50.834;6.286;2023-04-25T12:18:25;11.00;;;6.30;;
15142;SDS011;7672;50.834;6.286;2023-04-25T12:20:54;10.03;;;4.10;;
15142;SDS011;7672;50.834;6.286;2023-04-25T12:23:25;5.87;;;2.50;;
15142;SDS011;7672;50.834;6.286;2023-04-25T12:25:54;5.53;;;2.57;;
15142;SDS011;7672;50.834;6.286;2023-04-25T12:28:22;5.40;;;2.30;;
15142;SDS011;7672;50.834;6.286;2023-04-25T12:30:52;3.90;;;1.90;;
15142;SDS011;7672;50.834;6.286;2023-04-25T12:33:24;5.33;;;1.87;;
15142;SDS011;7672;50.834;6.286;2023-04-25T12:35:53;3.43;;;1.70;;
15142;SDS011;7672;50.834;6.286;2023-04-25T12:38:25;3.60;;;1.97;;
15142;SDS011;7672;50.834;6.286;2023-04-25T12:40:56;4.97;;;1.77;;
15142;SDS011;7672;50.834;6.286;2023-04-25T12:43:24;3.93;;;2.17;;
15142;SDS011;7672;50.834;6.286;2023-04-25T12:45:52;6.23;;;2.50;;
15142;SDS011;7672;50.834;6.286;2023-04-25T12:48:20;6.00;;;2.20;;
15142;SDS011;7672;50.834;6.286;2023-04-25T12:50:48;6.53;;;2.20;;
15142;SDS011;7672;50.834;6.286;2023-04-25T12:53:20;4.77;;;2.10;;
15142;SDS011;7672;50.834;6.286;2023-04-25T12:55:50;3.30;;;2.07;;
15142;SDS011;7672;50.834;6.286;2023-04-25T12:58:17;6.30;;;2.43;;
15142;SDS011;7672;50.834;6.286;2023-04-25T13:00:46;6.10;;;2.20;;
15142;SDS011;7672;50.834;6.286;2023-04-25T13:03:14;5.53;;;2.10;;
15142;SDS011;7672;50.834;6.286;2023-04-25T13:05:41;7.97;;;2.37;;
15142;SDS011;7672;50.834;6.286;2023-04-25T13:08:08;5.97;;;2.30;;
15142;SDS011;7672;50.834;6.286;2023-04-25T13:10:35;8.07;;;2.40;;
15142;SDS011;7672;50.834;6.286;2023-04-25T13:13:04;5.50;;;2.20;;
15142;SDS011;7672;50.834;6.286;2023-04-25T13:15:31;6.73;;;2.00;;
15142;SDS011;7672;50.834;6.286;2023-04-25T13:17:58;6.90;;;2.23;;
15142;SDS011;7672;50.834;6.286;2023-04-25T13:20:25;5.20;;;2.20;;
15142;SDS011;7672;50.834;6.286;2023-04-25T13:22:52;4.37;;;2.27;;
15142;SDS011;7672;50.834;6.286;2023-04-25T13:25:19;7.00;;;2.10;;
15142;SDS011;7672;50.834;6.286;2023-04-25T13:27:47;7.60;;;2.17;;
15142;SDS011;7672;50.834;6.286;2023-04-25T13:30:14;7.70;;;2.33;;
15142;SDS011;7672;50.834;6.286;2023-04-25T13:32:41;4.97;;;2.10;;
15142;SDS011;7672;50.834;6.286;2023-04-25T13:35:09;5.33;;;2.17;;
15142;SDS011;7672;50.834;6.286;2023-04-25T13:37:39;7.43;;;2.37;;
15142;SDS011;7672;50.834;6.286;2023-04-25T13:40:07;7.23;;;2.17;;
15142;SDS011;7672;50.834;6.286;2023-04-25T13:42:37;6.40;;;2.47;;
15142;SDS011;7672;50.834;6.286;2023-04-25T13:45:05;5.17;;;1.87;;
15142;SDS011;7672;50.834;6.286;2023-04-25T13:47:34;4.13;;;1.50;;
15142;SDS011;7672;50.834;6.286;2023-04-25T13:50:01;4.57;;;1.50;;
15142;SDS011;7672;50.834;6.286;2023-04-25T13:52:31;4.70;;;1.67;;
15142;SDS011;7672;50.834;6.286;2023-04-25T13:54:58;4.90;;;2.13;;
15142;SDS011;7672;50.834;6.286;2023-04-25T13:57:25;4.80;;;1.87;;
15142;SDS011;7672;50.834;6.286;2023-04-25T13:59:52;3.93;;;1.60;;
15142;SDS011;7672;50.834;6.286;2023-04-25T14:02:19;4.07;;;1.63;;
15142;SDS011;7672;50.834;6.286;2023-04-25T14:04:46;4.30;;;2.00;;
15142;SDS011;7672;50.834;6.286;2023-04-25T14:07:13;4.87;;;2.10;;
15142;SDS011;7672;50.834;6.286;2023-04-25T14:09:44;5.17;;;1.90;;
15142;SDS011;7672;50.834;6.286;2023-04-25T14:12:10;2.30;;;1.60;;
15142;SDS011;7672;50.834;6.286;2023-04-25T14:14:37;4.13;;;2.37;;
15142;SDS011;7672;50.834;6.286;2023-04-25T14:17:04;4.03;;;2.27;;
15142;SDS011;7672;50.834;6.286;2023-04-25T14:19:32;6.20;;;2.13;;
15142;SDS011;7672;50.834;6.286;2023-04-25T14:21:59;6.43;;;2.70;;
15142;SDS011;7672;50.834;6.286;2023-04-25T14:24:25;5.80;;;2.13;;
15142;SDS011;7672;50.834;6.286;2023-04-25T14:26:52;6.13;;;2.17;;
15142;SDS011;7672;50.834;6.286;2023-04-25T14:29:19;5.17;;;2.10;;
15142;SDS011;7672;50.834;6.286;2023-04-25T14:31:46;3.97;;;2.20;;
15142;SDS011;7672;50.834;6.286;2023-04-25T14:34:13;5.83;;;2.53;;
15142;SDS011;7672;50.834;6.286;2023-04-25T14:36:39;6.47;;;2.03;;
15142;SDS011;7672;50.834;6.286;2023-04-25T14:39:06;3.57;;;1.90;;
15142;SDS011;7672;50.834;6.286;2023-04-25T14:41:33;2.93;;;2.10;;
15142;SDS011;7672;50.834;6.286;2023-04-25T14:44:00;4.63;;;2.47;;
15142;SDS011;7672;50.834;6.286;2023-04-25T14:46:27;7.50;;;2.30;;
15142;SDS011;7672;50.834;6.286;2023-04-25T14:48:54;5.00;;;2.10;;
15142;SDS011;7672;50.834;6.286;2023-04-25T14:51:22;5.40;;;2.43;;
15142;SDS011;7672;50.834;6.286;2023-04-25T14:53:49;3.60;;;1.97;;
15142;SDS011;7672;50.834;6.286;2023-04-25T14:56:17;4.47;;;1.70;;
15142;SDS011;7672;50.834;6.286;2023-04-25T14:58:45;4.00;;;2.20;;
15142;SDS011;7672;50.834;6.286;2023-04-25T15:01:12;7.60;;;2.17;;
15142;SDS011;7672;50.834;6.286;2023-04-25T15:03:40;3.30;;;1.83;;
15142;SDS011;7672;50.834;6.286;2023-04-25T15:06:07;5.47;;;2.40;;
15142;SDS011;7672;50.834;6.286;2023-04-25T15:08:34;5.63;;;2.10;;
15142;SDS011;7672;50.834;6.286;2023-04-25T15:11:02;10.67;;;2.60;;